Time;durP1;ratioP1;P1;durP2;ratioP2;P2;SDS_P1;SDS_P2;PMS_P1;PMS_P2;Temp;Humidity;BMP_temperature;BMP_pressure;BME280_temperature;BME280_humidity;BME280_pressure;Samples;Min_cycle;Max_cycle;Signal;HPM_P1;HPM_P2
2024/03/31 00:00:42;;;;;;;;;;;;;;;;;;5045029;28;19921;-64
2024/03/31 00:03:08;;;;;;;;;;;;;;;;;;5024164;28;20108;-64
2024/03/31 00:05:34;;;;;;;;;;;;;;;;;;5041117;28;20410;-64
2024/03/31 00:08:00;;;;;;;;;;;;;;;;;;5035371;28;20364;-64
2024/03/31 00:10:26;;;;;;;;;;;;;;;;;;5021450;28;19972;-64
2024/03/31 00:12:51;;;;;;;;;;;;;;;;;;5028841;28;19963;-64
2024/03/31 00:15:17;;;;;;;;;;;;;;;;;;5022084;28;20095;-64
2024/03/31 00:17:43;;;;;;;;;;;;;;;;;;5029199;28;19979;-64
2024/03/31 00:20:09;;;;;;;;;;;;;;;;;;5027347;28;19947;-64
2024/03/31 00:22:35;;;;;;;;;;;;;;;;;;5016736;28;19974;-64
2024/03/31 00:25:01;;;;;;;;;;;;;;;;;;5020773;28;19928;-64
2024/03/31 00:27:27;;;;;;;;;;;;;;;;;;5029501;28;19991;-64
2024/03/31 00:29:53;;;;;;;;;;;;;;;;;;5026876;28;20004;-64
2024/03/31 00:32:19;;;;;;;;;;;;;;;;;;5019843;28;19921;-64
2024/03/31 00:34:45;;;;;;;;;;;;;;;;;;5028163;28;19994;-64
2024/03/31 00:37:11;;;;;;;;;;;;;;;;;;5023296;28;19936;-64
2024/03/31 00:39:36;;;;;;;;;;;;;;;;;;5017136;28;20428;-64
2024/03/31 00:42:02;;;;;;;;;;;;;;;;;;5012232;28;19925;-64
2024/03/31 00:44:28;;;;;;;;;;;;;;;;;;5022802;28;19925;-64
2024/03/31 00:46:54;;;;;;;;;;;;;;;;;;5026470;28;20260;-64
2024/03/31 00:49:20;;;;;;;;;;;;;;;;;;5024503;28;19922;-64
2024/03/31 00:51:46;;;;;;;;;;;;;;;;;;5020034;28;20067;-64
2024/03/31 00:54:12;;;;;;;;;;;;;;;;;;5018246;28;19922;-64
2024/03/31 00:56:38;;;;;;;;;;;;;;;;;;5019013;28;19928;-64
2024/03/31 00:59:04;;;;;;;;;;;;;;;;;;5018675;28;19932;-64
2024/03/31 01:01:30;;;;;;;;;;;;;;;;;;5030453;28;20284;-64
2024/03/31 01:03:56;;;;;;;;;;;;;;;;;;5025970;28;19925;-67
2024/03/31 01:06:22;;;;;;;;;;;;;;;;;;5011340;28;19928;-66
2024/03/31 01:08:48;;;;;;;;;;;;;;;;;;5030862;28;20039;-66
2024/03/31 01:11:14;;;;;;;;;;;;;;;;;;5055773;23;20020;-66
2024/03/31 01:13:40;;;;;;;;;;;;;;;;;;5067943;28;19931;-67
2024/03/31 01:16:06;;;;;;;;;;;;;;;;;;5070340;28;19920;-66
2024/03/31 01:18:32;;;;;;;;;;;;;;;;;;5070965;28;20419;-67
2024/03/31 01:20:57;;;;;;;;;;;;;;;;;;5069958;28;19928;-67
2024/03/31 01:23:23;;;;;;;;;;;;;;;;;;5067143;28;19928;-66
2024/03/31 01:25:49;;;;;;;;;;;;;;;;;;5068826;28;19921;-66
2024/03/31 01:28:15;;;;;;;;;;;;;;;;;;5049685;28;19966;-67
2024/03/31 01:30:41;;;;;;;;;;;;;;;;;;5067096;28;19928;-67
2024/03/31 01:33:07;;;;;;;;;;;;;;;;;;5067578;28;20031;-66
2024/03/31 01:35:33;;;;;;;;;;;;;;;;;;5070564;28;19927;-67
2024/03/31 01:37:59;;;;;;;;;;;;;;;;;;5067664;28;19987;-66
2024/03/31 01:40:25;;;;;;;;;;;;;;;;;;5048591;28;19927;-67
2024/03/31 01:42:51;;;;;;;;;;;;;;;;;;5047756;28;20011;-66
2024/03/31 01:45:17;;;;;;;;;;;;;;;;;;5065127;28;20012;-67
2024/03/31 01:47:43;;;;;;;;;;;;;;;;;;5052125;28;20011;-67
2024/03/31 01:50:09;;;;;;;;;;;;;;;;;;5067048;28;19921;-67
2024/03/31 01:52:35;;;;;;;;;;;;;;;;;;5070732;28;20020;-67
2024/03/31 01:55:01;;;;;;;;;;;;;;;;;;5070646;28;19967;-66
2024/03/31 01:57:26;;;;;;;;;;;;;;;;;;5054306;28;19968;-67
2024/03/31 01:59:52;;;;;;;;;;;;;;;;;;5051722;28;19968;-66
2024/03/31 02:02:18;;;;;;;;;;;;;;;;;;5062403;28;20006;-67
2024/03/31 02:04:44;;;;;;;;;;;;;;;;;;5067504;28;19920;-67
2024/03/31 02:07:11;;;;;;;;;;;;;;;;;;5068928;28;19926;-66
2024/03/31 02:09:36;;;;;;;;;;;;;;;;;;5049862;28;19924;-67
2024/03/31 02:12:02;;;;;;;;;;;;;;;;;;5047721;28;20279;-66
2024/03/31 02:14:28;;;;;;;;;;;;;;;;;;5054771;28;20309;-67
2024/03/31 02:16:55;;;;;;;;;;;;;;;;;;5048361;28;19924;-66
2024/03/31 02:19:24;;;;;;;;;;;;;;;;;;5069584;28;19921;-67
2024/03/31 02:21:50;;;;;;;;;;;;;;;;;;5068867;28;20363;-66
2024/03/31 02:24:16;;;;;;;;;;;;;;;;;;5041174;28;20019;-67
2024/03/31 02:26:42;;;;;;;;;;;;;;;;;;5063268;28;20837;-67
2024/03/31 02:29:08;;;;;;;;;;;;;;;;;;5066331;28;19929;-67
2024/03/31 02:31:33;;;;;;;;;;;;;;;;;;5048643;28;19927;-67
2024/03/31 02:33:59;;;;;;;;;;;;;;;;;;5068763;28;19924;-67
2024/03/31 02:36:25;;;;;;;;;;;;;;;;;;5068707;28;19925;-66
2024/03/31 02:38:51;;;;;;;;;;;;;;;;;;5050493;28;19920;-68
2024/03/31 02:41:17;;;;;;;;;;;;;;;;;;5066994;28;19924;-66
2024/03/31 02:43:43;;;;;;;;;;;;;;;;;;5065660;28;19924;-66
2024/03/31 02:46:09;;;;;;;;;;;;;;;;;;5068962;28;20011;-67
2024/03/31 02:48:35;;;;;;;;;;;;;;;;;;5066980;28;20062;-67
2024/03/31 02:51:01;;;;;;;;;;;;;;;;;;5052465;28;22092;-67
2024/03/31 02:53:27;;;;;;;;;;;;;;;;;;5071027;28;19920;-67
2024/03/31 02:55:53;;;;;;;;;;;;;;;;;;5071625;28;19928;-67
2024/03/31 02:58:18;;;;;;;;;;;;;;;;;;5055664;28;19925;-67
2024/03/31 03:00:44;;;;;;;;;;;;;;;;;;5054881;28;19970;-66
2024/03/31 03:03:10;;;;;;;;;;;;;;;;;;5064354;28;20596;-66
2024/03/31 03:05:36;;;;;;;;;;;;;;;;;;5053163;28;19924;-66
2024/03/31 03:08:02;;;;;;;;;;;;;;;;;;5066779;28;19924;-66
2024/03/31 03:10:28;;;;;;;;;;;;;;;;;;5071459;28;19925;-67
2024/03/31 03:12:54;;;;;;;;;;;;;;;;;;5066233;28;19924;-67
2024/03/31 03:15:20;;;;;;;;;;;;;;;;;;5069374;28;19958;-67
2024/03/31 03:17:46;;;;;;;;;;;;;;;;;;5071243;28;20353;-67
2024/03/31 03:20:12;;;;;;;;;;;;;;;;;;5071406;28;19927;-66
2024/03/31 03:22:38;;;;;;;;;;;;;;;;;;5070757;28;19924;-66
2024/03/31 03:25:04;;;;;;;;;;;;;;;;;;5072132;28;20327;-66
2024/03/31 03:27:30;;;;;;;;;;;;;;;;;;5073565;28;19924;-66
2024/03/31 03:29:56;;;;;;;;;;;;;;;;;;5042920;28;19967;-67
2024/03/31 03:32:22;;;;;;;;;;;;;;;;;;5070242;28;19963;-66
2024/03/31 03:34:48;;;;;;;;;;;;;;;;;;5070939;28;20003;-66
2024/03/31 03:37:14;;;;;;;;;;;;;;;;;;5072463;28;20358;-67
2024/03/31 03:39:41;;;;;;;;;;;;;;;;;;5071825;28;19920;-67
2024/03/31 03:42:07;;;;;;;;;;;;;;;;;;5072425;28;20371;-66
2024/03/31 03:44:33;;;;;;;;;;;;;;;;;;5061749;28;19951;-67
2024/03/31 03:46:58;;;;;;;;;;;;;;;;;;5065146;28;19932;-66
2024/03/31 03:49:24;;;;;;;;;;;;;;;;;;5053422;28;19955;-67
2024/03/31 03:51:52;;;;;;;;;;;;;;;;;;5070347;28;19931;-66
2024/03/31 03:54:17;;;;;;;;;;;;;;;;;;5072984;28;19928;-67
2024/03/31 03:56:44;;;;;;;;;;;;;;;;;;5054607;28;19943;-66
2024/03/31 03:59:10;;;;;;;;;;;;;;;;;;5070436;28;19927;-66
2024/03/31 04:01:37;;;;;;;;;;;;;;;;;;5063551;28;19925;-66
2024/03/31 04:04:03;;;;;;;;;;;;;;;;;;5071573;28;20330;-67
2024/03/31 04:06:29;;;;;;;;;;;;;;;;;;5072861;28;19939;-67
2024/03/31 04:08:55;;;;;;;;;;;;;;;;;;5067579;28;19924;-67
2024/03/31 04:11:21;;;;;;;;;;;;;;;;;;5072846;28;19924;-66
2024/03/31 04:13:47;;;;;;;;;;;;;;;;;;5070084;28;19927;-67
2024/03/31 04:16:13;;;;;;;;;;;;;;;;;;5067293;28;19932;-66
2024/03/31 04:18:39;;;;;;;;;;;;;;;;;;5052111;28;19948;-66
2024/03/31 04:21:04;;;;;;;;;;;;;;;;;;5054490;28;19921;-67
2024/03/31 04:23:30;;;;;;;;;;;;;;;;;;5071193;28;20006;-66
2024/03/31 04:25:56;;;;;;;;;;;;;;;;;;5069171;28;19931;-67
2024/03/31 04:28:22;;;;;;;;;;;;;;;;;;5071143;28;19920;-67
2024/03/31 04:30:48;;;;;;;;;;;;;;;;;;5042542;28;19924;-66
2024/03/31 04:33:14;;;;;;;;;;;;;;;;;;5070492;28;20561;-67
2024/03/31 04:35:40;;;;;;;;;;;;;;;;;;5072682;28;19932;-67
2024/03/31 04:38:06;;;;;;;;;;;;;;;;;;5068846;28;19925;-67
2024/03/31 04:40:32;;;;;;;;;;;;;;;;;;5066307;28;19924;-67
2024/03/31 04:42:58;;;;;;;;;;;;;;;;;;5073008;28;20385;-67
2024/03/31 04:45:24;;;;;;;;;;;;;;;;;;5067596;28;20272;-67
2024/03/31 04:47:50;;;;;;;;;;;;;;;;;;5048388;28;19926;-67
2024/03/31 04:50:16;;;;;;;;;;;;;;;;;;5072403;28;19926;-67
2024/03/31 04:52:41;;;;;;;;;;;;;;;;;;5072465;28;19942;-66
2024/03/31 04:55:07;;;;;;;;;;;;;;;;;;5057406;28;20303;-67
2024/03/31 04:57:33;;;;;;;;;;;;;;;;;;5048219;28;19930;-67
2024/03/31 04:59:59;;;;;;;;;;;;;;;;;;5072078;28;19927;-67
2024/03/31 05:02:25;;;;;;;;;;;;;;;;;;5069581;28;19926;-67
2024/03/31 05:04:51;;;;;;;;;;;;;;;;;;5072096;28;20562;-67
2024/03/31 05:07:17;;;;;;;;;;;;;;;;;;5054083;28;19920;-66
2024/03/31 05:09:43;;;;;;;;;;;;;;;;;;5054096;28;20047;-67
2024/03/31 05:12:09;;;;;;;;;;;;;;;;;;5071634;28;20003;-66
2024/03/31 05:14:35;;;;;;;;;;;;;;;;;;5071866;28;19931;-67
2024/03/31 05:17:03;;;;;;;;;;;;;;;;;;5060683;28;19986;-67
2024/03/31 05:19:29;;;;;;;;;;;;;;;;;;5052361;28;19921;-67
2024/03/31 05:21:54;;;;;;;;;;;;;;;;;;5052040;28;19955;-67
2024/03/31 05:24:20;;;;;;;;;;;;;;;;;;5052010;28;20387;-67
2024/03/31 05:26:46;;;;;;;;;;;;;;;;;;5052581;28;19932;-66
2024/03/31 05:29:12;;;;;;;;;;;;;;;;;;5054408;28;19978;-67
2024/03/31 05:31:38;;;;;;;;;;;;;;;;;;5061338;28;20433;-67
2024/03/31 05:34:04;;;;;;;;;;;;;;;;;;5065735;28;19972;-67
2024/03/31 05:36:30;;;;;;;;;;;;;;;;;;5071319;28;19932;-66
2024/03/31 05:38:56;;;;;;;;;;;;;;;;;;5071050;28;19924;-66
2024/03/31 05:41:22;;;;;;;;;;;;;;;;;;5071452;28;20360;-66
2024/03/31 05:43:47;;;;;;;;;;;;;;;;;;5072080;28;19924;-67
2024/03/31 05:46:14;;;;;;;;;;;;;;;;;;5071549;28;19936;-66
2024/03/31 05:48:40;;;;;;;;;;;;;;;;;;5066058;28;20387;-66
2024/03/31 05:51:06;;;;;;;;;;;;;;;;;;5055524;28;19921;-67
2024/03/31 05:53:32;;;;;;;;;;;;;;;;;;5051826;28;19929;-67
2024/03/31 05:55:58;;;;;;;;;;;;;;;;;;5051322;28;19929;-67
2024/03/31 05:58:24;;;;;;;;;;;;;;;;;;5063376;28;19925;-67
2024/03/31 06:00:50;;;;;;;;;;;;;;;;;;5063685;28;19928;-67
2024/03/31 06:03:15;;;;;;;;;;;;;;;;;;5051508;28;19931;-67
2024/03/31 06:05:41;;;;;;;;;;;;;;;;;;5047310;28;20303;-67
2024/03/31 06:08:07;;;;;;;;;;;;;;;;;;5052838;28;19925;-67
2024/03/31 06:10:33;;;;;;;;;;;;;;;;;;5070345;28;19928;-67
2024/03/31 06:12:59;;;;;;;;;;;;;;;;;;5069599;28;19931;-66
2024/03/31 06:15:25;;;;;;;;;;;;;;;;;;5068423;28;20338;-66
2024/03/31 06:17:51;;;;;;;;;;;;;;;;;;5063410;28;19924;-67
2024/03/31 06:20:17;;;;;;;;;;;;;;;;;;5068133;28;19967;-67
2024/03/31 06:22:43;;;;;;;;;;;;;;;;;;5061727;28;19979;-66
2024/03/31 06:25:09;;;;;;;;;;;;;;;;;;5049282;28;19970;-66
2024/03/31 06:27:35;;;;;;;;;;;;;;;;;;5074859;28;19924;-66
2024/03/31 06:30:01;;;;;;;;;;;;;;;;;;5072904;28;19920;-66
2024/03/31 06:32:27;;;;;;;;;;;;;;;;;;5070762;28;19970;-66
2024/03/31 06:34:53;;;;;;;;;;;;;;;;;;5072302;28;19924;-67
2024/03/31 06:37:19;;;;;;;;;;;;;;;;;;5070650;28;20402;-67
2024/03/31 06:39:45;;;;;;;;;;;;;;;;;;5062310;28;20454;-66
2024/03/31 06:42:10;;;;;;;;;;;;;;;;;;5069178;28;19924;-66
2024/03/31 06:44:36;;;;;;;;;;;;;;;;;;5069598;28;19924;-67
2024/03/31 06:47:02;;;;;;;;;;;;;;;;;;5050627;28;20268;-67
2024/03/31 06:49:28;;;;;;;;;;;;;;;;;;5051980;28;19925;-66
2024/03/31 06:51:54;;;;;;;;;;;;;;;;;;5072466;28;19931;-66
2024/03/31 06:54:20;;;;;;;;;;;;;;;;;;5067756;28;19920;-66
2024/03/31 06:56:46;;;;;;;;;;;;;;;;;;5063922;28;20048;-66
2024/03/31 06:59:12;;;;;;;;;;;;;;;;;;5071672;28;20241;-66
2024/03/31 07:01:38;;;;;;;;;;;;;;;;;;5038563;28;19928;-66
2024/03/31 07:04:04;;;;;;;;;;;;;;;;;;5073617;28;20386;-67
2024/03/31 07:06:29;;;;;;;;;;;;;;;;;;5070715;28;19935;-67
2024/03/31 07:08:55;;;;;;;;;;;;;;;;;;5072641;28;19928;-67
2024/03/31 07:11:21;;;;;;;;;;;;;;;;;;5077977;22;19928;-64
2024/03/31 07:13:47;;;;;;;;;;;;;;;;;;5073195;28;19937;-64
2024/03/31 07:16:13;;;;;;;;;;;;;;;;;;5072301;28;19921;-63
2024/03/31 07:18:39;;;;;;;;;;;;;;;;;;5074680;28;19933;-63
2024/03/31 07:21:05;;;;;;;;;;;;;;;;;;5073693;28;19928;-64
2024/03/31 07:23:31;;;;;;;;;;;;;;;;;;5074476;28;19927;-63
2024/03/31 07:25:59;;;;;;;;;;;;;;;;;;5074487;28;19921;-63
2024/03/31 07:28:25;;;;;;;;;;;;;;;;;;5073726;28;19936;-63
2024/03/31 07:30:51;;;;;;;;;;;;;;;;;;5071635;28;19928;-64
2024/03/31 07:33:18;;;;;;;;;;;;;;;;;;5072067;28;20394;-63
2024/03/31 07:35:44;;;;;;;;;;;;;;;;;;5071680;28;19974;-64
2024/03/31 07:38:10;;;;;;;;;;;;;;;;;;5073634;28;20279;-64
2024/03/31 07:40:36;;;;;;;;;;;;;;;;;;5073160;28;19920;-64
2024/03/31 07:43:02;;;;;;;;;;;;;;;;;;5073831;28;19931;-63
2024/03/31 07:45:28;;;;;;;;;;;;;;;;;;5072548;28;19928;-63
2024/03/31 07:47:54;;;;;;;;;;;;;;;;;;5070153;28;19963;-63
2024/03/31 07:50:20;;;;;;;;;;;;;;;;;;5069719;28;19920;-63
2024/03/31 07:52:46;;;;;;;;;;;;;;;;;;5072569;28;19928;-63
2024/03/31 07:55:12;;;;;;;;;;;;;;;;;;5065879;28;19932;-63
2024/03/31 07:57:38;;;;;;;;;;;;;;;;;;5084303;28;19931;-63
2024/03/31 08:00:04;;;;;;;;;;;;;;;;;;5071923;28;20404;-63
2024/03/31 08:02:30;;;;;;;;;;;;;;;;;;5073644;28;20416;-63
2024/03/31 08:04:55;;;;;;;;;;;;;;;;;;5069368;28;20407;-63
2024/03/31 08:07:21;;;;;;;;;;;;;;;;;;5072426;28;19935;-63
2024/03/31 08:09:47;;;;;;;;;;;;;;;;;;5071907;28;19928;-63
2024/03/31 08:12:13;;;;;;;;;;;;;;;;;;5070854;28;19943;-63
2024/03/31 08:14:39;;;;;;;;;;;;;;;;;;5071447;28;20338;-64
2024/03/31 08:17:05;;;;;;;;;;;;;;;;;;5055663;28;19929;-64
2024/03/31 08:19:31;;;;;;;;;;;;;;;;;;5070904;28;19939;-64
2024/03/31 08:21:57;;;;;;;;;;;;;;;;;;5070938;28;19921;-64
2024/03/31 08:24:23;;;;;;;;;;;;;;;;;;5071914;28;20358;-63
2024/03/31 08:26:49;;;;;;;;;;;;;;;;;;5070937;28;19928;-64
2024/03/31 08:29:17;;;;;;;;;;;;;;;;;;5071928;28;19920;-63
2024/03/31 08:31:43;;;;;;;;;;;;;;;;;;5070266;28;20422;-63
2024/03/31 08:34:09;;;;;;;;;;;;;;;;;;5071027;28;19924;-63
2024/03/31 08:36:35;;;;;;;;;;;;;;;;;;5071885;28;19935;-64
2024/03/31 08:39:01;;;;;;;;;;;;;;;;;;5070486;28;19935;-63
2024/03/31 08:41:27;;;;;;;;;;;;;;;;;;5072930;28;20041;-63
2024/03/31 08:43:53;;;;;;;;;;;;;;;;;;5071896;28;19966;-63
2024/03/31 08:46:18;;;;;;;;;;;;;;;;;;5067469;28;20288;-63
2024/03/31 08:48:44;;;;;;;;;;;;;;;;;;5071549;28;20601;-63
2024/03/31 08:51:10;;;;;;;;;;;;;;;;;;5069573;28;19974;-63
2024/03/31 08:53:36;;;;;;;;;;;;;;;;;;5069945;28;19924;-63
2024/03/31 08:56:02;;;;;;;;;;;;;;;;;;5071319;28;20295;-63
2024/03/31 08:58:28;;;;;;;;;;;;;;;;;;5072677;28;19932;-63
2024/03/31 09:00:54;;;;;;;;;;;;;;;;;;5069802;28;19920;-63
2024/03/31 09:03:20;;;;;;;;;;;;;;;;;;5070078;28;19928;-63
2024/03/31 09:05:46;;;;;;;;;;;;;;;;;;5070257;28;20489;-64
2024/03/31 09:08:11;;;;;;;;;;;;;;;;;;5072379;28;19932;-64
2024/03/31 09:10:37;;;;;;;;;;;;;;;;;;5071633;28;19924;-63
2024/03/31 09:13:03;;;;;;;;;;;;;;;;;;5071506;28;19944;-63
2024/03/31 09:15:29;;;;;;;;;;;;;;;;;;5071713;28;20261;-63
2024/03/31 09:17:55;;;;;;;;;;;;;;;;;;5061202;28;19928;-64
2024/03/31 09:20:21;;;;;;;;;;;;;;;;;;5063312;28;19921;-64
2024/03/31 09:22:47;;;;;;;;;;;;;;;;;;5071724;28;19944;-64
2024/03/31 09:25:13;;;;;;;;;;;;;;;;;;5071251;28;19924;-64
2024/03/31 09:27:39;;;;;;;;;;;;;;;;;;5071897;28;19924;-63
2024/03/31 09:30:05;;;;;;;;;;;;;;;;;;5071818;28;20461;-64
2024/03/31 09:32:31;;;;;;;;;;;;;;;;;;5068603;28;19927;-64
2024/03/31 09:34:57;;;;;;;;;;;;;;;;;;5068850;28;19931;-63
2024/03/31 09:37:23;;;;;;;;;;;;;;;;;;5070525;28;19938;-63
2024/03/31 09:39:48;;;;;;;;;;;;;;;;;;5069559;28;19970;-63
2024/03/31 09:42:14;;;;;;;;;;;;;;;;;;5071140;28;19990;-64
2024/03/31 09:44:41;;;;;;;;;;;;;;;;;;5070519;28;19924;-63
2024/03/31 09:47:07;;;;;;;;;;;;;;;;;;5069916;28;19927;-64
2024/03/31 09:49:33;;;;;;;;;;;;;;;;;;5053552;28;20746;-63
2024/03/31 09:51:59;;;;;;;;;;;;;;;;;;5063525;28;19925;-63
2024/03/31 09:54:25;;;;;;;;;;;;;;;;;;5069995;28;19921;-64
2024/03/31 09:56:51;;;;;;;;;;;;;;;;;;5070781;28;19920;-64
2024/03/31 09:59:17;;;;;;;;;;;;;;;;;;5073184;28;19920;-64
2024/03/31 10:01:43;;;;;;;;;;;;;;;;;;5071385;28;20291;-63
2024/03/31 10:04:08;;;;;;;;;;;;;;;;;;5074474;28;19924;-63
2024/03/31 10:06:34;;;;;;;;;;;;;;;;;;5074476;28;19924;-64
2024/03/31 10:09:00;;;;;;;;;;;;;;;;;;5075057;28;19920;-64
2024/03/31 10:11:26;;;;;;;;;;;;;;;;;;5060494;28;19929;-64
2024/03/31 10:13:52;;;;;;;;;;;;;;;;;;5054754;28;19928;-64
2024/03/31 10:16:18;;;;;;;;;;;;;;;;;;5070639;28;19921;-64
2024/03/31 10:18:44;;;;;;;;;;;;;;;;;;5075139;28;19924;-64
2024/03/31 10:21:10;;;;;;;;;;;;;;;;;;5074697;28;20586;-64
2024/03/31 10:23:36;;;;;;;;;;;;;;;;;;5075342;28;19920;-64
2024/03/31 10:26:02;;;;;;;;;;;;;;;;;;5075004;28;19920;-64
2024/03/31 10:28:28;;;;;;;;;;;;;;;;;;5075335;28;19924;-64
2024/03/31 10:30:54;;;;;;;;;;;;;;;;;;5075111;28;19921;-64
2024/03/31 10:33:20;;;;;;;;;;;;;;;;;;5072319;28;20518;-64
2024/03/31 10:35:46;;;;;;;;;;;;;;;;;;5075358;28;20003;-64
2024/03/31 10:38:12;;;;;;;;;;;;;;;;;;5074751;28;20012;-64
2024/03/31 10:40:38;;;;;;;;;;;;;;;;;;5072543;28;19966;-64
2024/03/31 10:43:05;;;;;;;;;;;;;;;;;;5075073;28;19974;-64
2024/03/31 10:45:31;;;;;;;;;;;;;;;;;;5074896;28;19943;-64
2024/03/31 10:47:57;;;;;;;;;;;;;;;;;;5074523;28;20426;-64
2024/03/31 10:50:23;;;;;;;;;;;;;;;;;;5074849;28;19920;-64
2024/03/31 10:52:49;;;;;;;;;;;;;;;;;;5072133;28;19934;-64
2024/03/31 10:55:15;;;;;;;;;;;;;;;;;;5069633;28;19988;-65
2024/03/31 10:57:41;;;;;;;;;;;;;;;;;;5074419;28;19924;-64
2024/03/31 11:00:06;;;;;;;;;;;;;;;;;;5074779;28;19920;-64
2024/03/31 11:02:35;;;;;;;;;;;;;;;;;;5074625;28;19979;-64
2024/03/31 11:05:01;;;;;;;;;;;;;;;;;;5074733;28;19978;-64
2024/03/31 11:07:27;;;;;;;;;;;;;;;;;;5070585;28;19921;-64
2024/03/31 11:09:53;;;;;;;;;;;;;;;;;;5053266;28;19927;-64
2024/03/31 11:12:19;;;;;;;;;;;;;;;;;;5074005;28;19973;-64
2024/03/31 11:14:45;;;;;;;;;;;;;;;;;;5074503;28;19969;-63
2024/03/31 11:17:11;;;;;;;;;;;;;;;;;;5074178;28;19946;-64
2024/03/31 11:19:37;;;;;;;;;;;;;;;;;;5074120;28;20351;-64
2024/03/31 11:22:03;;;;;;;;;;;;;;;;;;5074309;28;19924;-64
2024/03/31 11:24:29;;;;;;;;;;;;;;;;;;5072760;28;20018;-64
2024/03/31 11:26:55;;;;;;;;;;;;;;;;;;5071131;28;20295;-64
2024/03/31 11:29:20;;;;;;;;;;;;;;;;;;5072478;28;19921;-64
2024/03/31 11:31:46;;;;;;;;;;;;;;;;;;5073920;28;19931;-64
2024/03/31 11:34:12;;;;;;;;;;;;;;;;;;5072400;28;19934;-63
2024/03/31 11:36:38;;;;;;;;;;;;;;;;;;5072432;28;20402;-63
2024/03/31 11:39:04;;;;;;;;;;;;;;;;;;5073601;28;19931;-63
2024/03/31 11:41:30;;;;;;;;;;;;;;;;;;5070291;28;19928;-63
2024/03/31 11:43:56;;;;;;;;;;;;;;;;;;5070555;28;19928;-63
2024/03/31 11:46:22;;;;;;;;;;;;;;;;;;5072111;28;19924;-63
2024/03/31 11:48:48;;;;;;;;;;;;;;;;;;5071591;28;19920;-63
2024/03/31 11:51:14;;;;;;;;;;;;;;;;;;5073184;28;20011;-64
2024/03/31 11:53:40;;;;;;;;;;;;;;;;;;5070433;28;19999;-63
2024/03/31 11:56:06;;;;;;;;;;;;;;;;;;5069136;28;20273;-63
2024/03/31 11:58:32;;;;;;;;;;;;;;;;;;5073436;28;19943;-63
2024/03/31 12:00:58;;;;;;;;;;;;;;;;;;5073169;28;20011;-63
2024/03/31 12:03:24;;;;;;;;;;;;;;;;;;5073437;28;19920;-63
2024/03/31 12:05:50;;;;;;;;;;;;;;;;;;5073520;28;19921;-63
2024/03/31 12:08:16;;;;;;;;;;;;;;;;;;5073329;28;19932;-63
2024/03/31 12:10:42;;;;;;;;;;;;;;;;;;5071804;28;19978;-63
2024/03/31 12:13:08;;;;;;;;;;;;;;;;;;5070506;28;19920;-63
2024/03/31 12:15:34;;;;;;;;;;;;;;;;;;5071218;28;19924;-63
2024/03/31 12:18:00;;;;;;;;;;;;;;;;;;5066349;28;19929;-63
2024/03/31 12:20:26;;;;;;;;;;;;;;;;;;5073016;28;19926;-63
2024/03/31 12:22:52;;;;;;;;;;;;;;;;;;5071552;28;19999;-63
2024/03/31 12:25:18;;;;;;;;;;;;;;;;;;5072131;28;19924;-63
2024/03/31 12:27:44;;;;;;;;;;;;;;;;;;5072950;28;19932;-63
2024/03/31 12:30:10;;;;;;;;;;;;;;;;;;5072800;28;19920;-63
2024/03/31 12:32:36;;;;;;;;;;;;;;;;;;5072974;28;20283;-63
2024/03/31 12:35:03;;;;;;;;;;;;;;;;;;5056317;28;20012;-63
2024/03/31 12:37:29;;;;;;;;;;;;;;;;;;5071829;28;20020;-63
2024/03/31 12:39:55;;;;;;;;;;;;;;;;;;5071850;28;20015;-63
2024/03/31 12:42:27;;;;;;;;;;;;;;;;;;5073751;28;20015;-63
2024/03/31 12:44:53;;;;;;;;;;;;;;;;;;5071776;28;19939;-63
2024/03/31 12:47:19;;;;;;;;;;;;;;;;;;5072535;28;19928;-63
2024/03/31 12:49:45;;;;;;;;;;;;;;;;;;5048152;28;19994;-63
2024/03/31 12:52:11;;;;;;;;;;;;;;;;;;5054885;28;19974;-63
2024/03/31 12:54:37;;;;;;;;;;;;;;;;;;5070882;28;20000;-64
2024/03/31 12:57:03;;;;;;;;;;;;;;;;;;5070550;28;20358;-64
2024/03/31 12:59:29;;;;;;;;;;;;;;;;;;5071721;28;19925;-64
2024/03/31 13:01:55;;;;;;;;;;;;;;;;;;5072258;28;19971;-64
2024/03/31 13:04:21;;;;;;;;;;;;;;;;;;5068960;28;20426;-64
2024/03/31 13:06:46;;;;;;;;;;;;;;;;;;5070265;28;19928;-64
2024/03/31 13:09:12;;;;;;;;;;;;;;;;;;5071648;28;19925;-64
2024/03/31 13:11:38;;;;;;;;;;;;;;;;;;5060685;22;19963;-64
2024/03/31 13:14:04;;;;;;;;;;;;;;;;;;5051683;28;19927;-63
2024/03/31 13:16:30;;;;;;;;;;;;;;;;;;5033760;28;19929;-64
2024/03/31 13:18:56;;;;;;;;;;;;;;;;;;5051472;28;19936;-64
2024/03/31 13:21:22;;;;;;;;;;;;;;;;;;5051402;28;20352;-64
2024/03/31 13:23:48;;;;;;;;;;;;;;;;;;5051812;28;19920;-64
2024/03/31 13:26:14;;;;;;;;;;;;;;;;;;5049736;28;19925;-64
2024/03/31 13:28:40;;;;;;;;;;;;;;;;;;5051357;28;20271;-64
2024/03/31 13:31:06;;;;;;;;;;;;;;;;;;5033365;28;19924;-64
2024/03/31 13:33:32;;;;;;;;;;;;;;;;;;5033148;28;19932;-63
2024/03/31 13:35:58;;;;;;;;;;;;;;;;;;5033165;28;19924;-63
2024/03/31 13:38:24;;;;;;;;;;;;;;;;;;5051432;28;20352;-63
2024/03/31 13:40:50;;;;;;;;;;;;;;;;;;5031232;28;19925;-63
2024/03/31 13:43:16;;;;;;;;;;;;;;;;;;5033233;28;19925;-63
2024/03/31 13:45:42;;;;;;;;;;;;;;;;;;5049612;28;19931;-64
2024/03/31 13:48:08;;;;;;;;;;;;;;;;;;5051358;28;19921;-63
2024/03/31 13:50:34;;;;;;;;;;;;;;;;;;5032805;28;19920;-62
2024/03/31 13:52:59;;;;;;;;;;;;;;;;;;5033425;28;19924;-62
2024/03/31 13:55:25;;;;;;;;;;;;;;;;;;5050522;28;19932;-63
2024/03/31 13:57:51;;;;;;;;;;;;;;;;;;5049615;28;20008;-63
2024/03/31 14:00:17;;;;;;;;;;;;;;;;;;5029816;28;19960;-63
2024/03/31 14:02:43;;;;;;;;;;;;;;;;;;5048999;28;19954;-62
2024/03/31 14:05:09;;;;;;;;;;;;;;;;;;5048880;28;19925;-62
2024/03/31 14:07:35;;;;;;;;;;;;;;;;;;5050573;28;20342;-62
2024/03/31 14:10:03;;;;;;;;;;;;;;;;;;5051093;28;19947;-62
2024/03/31 14:12:29;;;;;;;;;;;;;;;;;;5043628;28;19931;-62
2024/03/31 14:14:55;;;;;;;;;;;;;;;;;;5048066;28;19924;-62
2024/03/31 14:17:21;;;;;;;;;;;;;;;;;;5048649;28;21094;-62
2024/03/31 14:19:48;;;;;;;;;;;;;;;;;;5045083;28;19931;-62
2024/03/31 14:22:14;;;;;;;;;;;;;;;;;;5049380;28;19924;-62
2024/03/31 14:24:40;;;;;;;;;;;;;;;;;;5049708;28;19932;-63
2024/03/31 14:27:06;;;;;;;;;;;;;;;;;;5046918;28;19931;-62
2024/03/31 14:29:31;;;;;;;;;;;;;;;;;;5030247;28;19965;-62
2024/03/31 14:31:57;;;;;;;;;;;;;;;;;;5049829;28;19931;-62
2024/03/31 14:34:23;;;;;;;;;;;;;;;;;;5048324;28;19936;-62
2024/03/31 14:36:49;;;;;;;;;;;;;;;;;;5048631;28;19920;-62
2024/03/31 14:39:15;;;;;;;;;;;;;;;;;;5031381;28;20302;-63
2024/03/31 14:41:41;;;;;;;;;;;;;;;;;;5049694;28;19924;-62
2024/03/31 14:44:07;;;;;;;;;;;;;;;;;;5031313;28;19920;-62
2024/03/31 14:46:33;;;;;;;;;;;;;;;;;;5051707;28;19928;-62
2024/03/31 14:48:59;;;;;;;;;;;;;;;;;;5051662;28;20426;-62
2024/03/31 14:51:25;;;;;;;;;;;;;;;;;;5054627;28;19930;-63
2024/03/31 14:53:50;;;;;;;;;;;;;;;;;;5052862;28;19925;-62
2024/03/31 14:56:16;;;;;;;;;;;;;;;;;;5033117;28;19925;-63
2024/03/31 14:58:43;;;;;;;;;;;;;;;;;;5031758;28;19983;-62
2024/03/31 15:01:09;;;;;;;;;;;;;;;;;;5050040;28;19924;-62
2024/03/31 15:03:35;;;;;;;;;;;;;;;;;;5052055;28;20015;-63
2024/03/31 15:06:01;;;;;;;;;;;;;;;;;;5033129;28;19939;-62
2024/03/31 15:08:27;;;;;;;;;;;;;;;;;;5034885;28;19925;-62
2024/03/31 15:10:53;;;;;;;;;;;;;;;;;;4969415;28;1769630;-62
2024/03/31 15:13:19;;;;;;;;;;;;;;;;;;5053547;28;19974;-63
2024/03/31 15:15:45;;;;;;;;;;;;;;;;;;5053592;28;19924;-63
2024/03/31 15:18:11;;;;;;;;;;;;;;;;;;5054271;28;19925;-63
2024/03/31 15:20:37;;;;;;;;;;;;;;;;;;5053423;28;19927;-62
2024/03/31 15:23:03;;;;;;;;;;;;;;;;;;5014621;28;19920;-62
2024/03/31 15:25:29;;;;;;;;;;;;;;;;;;5057373;28;19977;-62
2024/03/31 15:27:55;;;;;;;;;;;;;;;;;;5061530;28;20406;-63
2024/03/31 15:30:21;;;;;;;;;;;;;;;;;;5046886;28;19925;-62
2024/03/31 15:32:46;;;;;;;;;;;;;;;;;;5051347;28;20303;-62
2024/03/31 15:35:12;;;;;;;;;;;;;;;;;;5053308;28;19932;-62
2024/03/31 15:37:38;;;;;;;;;;;;;;;;;;5048878;28;19931;-62
2024/03/31 15:40:04;;;;;;;;;;;;;;;;;;5053005;28;19982;-63
2024/03/31 15:42:30;;;;;;;;;;;;;;;;;;5053065;28;19978;-63
2024/03/31 15:44:56;;;;;;;;;;;;;;;;;;5035336;28;19975;-63
2024/03/31 15:47:22;;;;;;;;;;;;;;;;;;5052839;28;19932;-63
2024/03/31 15:49:48;;;;;;;;;;;;;;;;;;5052670;28;20308;-63
2024/03/31 15:52:14;;;;;;;;;;;;;;;;;;5035097;28;19924;-63
2024/03/31 15:54:40;;;;;;;;;;;;;;;;;;5043323;28;20407;-63
2024/03/31 15:57:06;;;;;;;;;;;;;;;;;;5050820;28;20008;-63
2024/03/31 15:59:32;;;;;;;;;;;;;;;;;;5032410;28;20015;-63
2024/03/31 16:01:58;;;;;;;;;;;;;;;;;;5052305;28;19932;-63
2024/03/31 16:04:25;;;;;;;;;;;;;;;;;;5050928;28;20019;-63
2024/03/31 16:06:51;;;;;;;;;;;;;;;;;;5033006;28;20304;-63
2024/03/31 16:09:17;;;;;;;;;;;;;;;;;;5027819;28;19921;-63
2024/03/31 16:11:43;;;;;;;;;;;;;;;;;;5038891;28;19970;-62
2024/03/31 16:14:09;;;;;;;;;;;;;;;;;;5046844;28;19973;-62
2024/03/31 16:16:35;;;;;;;;;;;;;;;;;;5034406;28;19968;-63
2024/03/31 16:19:01;;;;;;;;;;;;;;;;;;5052406;28;20023;-62
2024/03/31 16:21:27;;;;;;;;;;;;;;;;;;5050562;28;19955;-62
2024/03/31 16:23:53;;;;;;;;;;;;;;;;;;5030250;28;19920;-62
2024/03/31 16:26:19;;;;;;;;;;;;;;;;;;5038189;28;20388;-62
2024/03/31 16:28:44;;;;;;;;;;;;;;;;;;5032455;28;19931;-62
2024/03/31 16:31:10;;;;;;;;;;;;;;;;;;5051041;28;19931;-62
2024/03/31 16:33:36;;;;;;;;;;;;;;;;;;5042796;28;19971;-63
2024/03/31 16:36:02;;;;;;;;;;;;;;;;;;5026644;28;19932;-63